Terminal Aerodrome Forecast
Issued by NWS Green Bay, WI

Home | Current Version | Previous Version | Text Only | Print | Product List | Glossary Off
Versions: 1 2 3 4 5 6 7 8 9 10 11 12 13 14 15 16 17 18 19 20 21 22 23 24 25 26 27 28 29

000
FTUS43 KGRB 241100
TAFGRB
TAF
KGRB 241136Z 2412/2512 22015G25KT P6SM SCT035 OVC060 WS018/25040KT
      TEMPO 2412/2413 4SM -SN BKN035
     FM241300 24016G26KT 6SM -SN BKN035 OVC060 WS018/27040KT
      TEMPO 2414/2416 2SM -SN BKN025
     FM241700 26015G25KT P6SM -SN BKN035 OVC080
     FM242200 30018G28KT 6SM -SN BLSN SCT020 BKN035
     FM250200 32012KT P6SM SCT035
     FM250800 31006KT P6SM SCT035=

USA.gov is the U.S. government's official web portal to all federal, state and local government web resources and services.